Detroit, Michigan
Traffic Map
Current Weather Conditions
Detroit, Michigan
Overcast
Overcast

Feels Like: 5°
Wind Chill: Ceiling: 3200
Heat Index: Visibility: 12mi
Dew Point: Wind: 14mph
Humidity: 81% Direction: 210° (SSW)
Pressure: 29.95in Gusts: 0mph
Raw Report DataCYQG 230500Z 21012KT 12SM OVC032 08/05 A2995 RMK SC8 SLP147
Traffic Incident Summary
Active as of:
Severity:
Category:
InformationThere was an issue retrieving the traffic information for this location. Please try a different location or try again shortly.
Advertisements
Track Severe Weather on mobile